sensor_id;sensor_type;location;lat;lon;timestamp;P1;durP1;ratioP1;P2;durP2;ratioP2
40755;SDS011;26461;45.630;9.418;2023-04-06T00:00:27;8.93;;;4.60;;
40755;SDS011;26461;45.630;9.418;2023-04-06T00:03:32;15.63;;;5.53;;
40755;SDS011;26461;45.630;9.418;2023-04-06T00:06:43;9.13;;;5.07;;
40755;SDS011;26461;45.630;9.418;2023-04-06T00:09:48;14.77;;;5.80;;
40755;SDS011;26461;45.630;9.418;2023-04-06T00:12:54;10.45;;;4.88;;
40755;SDS011;26461;45.630;9.418;2023-04-06T00:16:06;13.40;;;5.88;;
40755;SDS011;26461;45.630;9.418;2023-04-06T00:19:16;12.05;;;4.55;;
40755;SDS011;26461;45.630;9.418;2023-04-06T00:22:26;11.23;;;6.45;;
40755;SDS011;26461;45.630;9.418;2023-04-06T00:25:36;10.57;;;5.05;;
40755;SDS011;26461;45.630;9.418;2023-04-06T00:28:47;7.97;;;4.53;;
40755;SDS011;26461;45.630;9.418;2023-04-06T00:31:55;11.57;;;4.00;;
40755;SDS011;26461;45.630;9.418;2023-04-06T00:35:05;18.67;;;5.97;;
40755;SDS011;26461;45.630;9.418;2023-04-06T00:38:16;6.10;;;4.35;;
40755;SDS011;26461;45.630;9.418;2023-04-06T00:41:26;14.57;;;5.63;;
40755;SDS011;26461;45.630;9.418;2023-04-06T00:44:37;9.27;;;6.80;;
40755;SDS011;26461;45.630;9.418;2023-04-06T00:47:48;6.93;;;5.20;;
40755;SDS011;26461;45.630;9.418;2023-04-06T00:50:53;10.13;;;4.75;;
40755;SDS011;26461;45.630;9.418;2023-04-06T00:54:04;8.85;;;6.35;;
40755;SDS011;26461;45.630;9.418;2023-04-06T00:57:12;8.07;;;3.15;;
40755;SDS011;26461;45.630;9.418;2023-04-06T01:00:20;11.57;;;3.58;;
40755;SDS011;26461;45.630;9.418;2023-04-06T01:03:31;7.72;;;3.47;;
40755;SDS011;26461;45.630;9.418;2023-04-06T01:06:42;9.25;;;4.22;;
40755;SDS011;26461;45.630;9.418;2023-04-06T01:09:54;8.10;;;6.03;;
40755;SDS011;26461;45.630;9.418;2023-04-06T01:13:07;9.98;;;6.20;;
40755;SDS011;26461;45.630;9.418;2023-04-06T01:16:25;15.25;;;4.05;;
40755;SDS011;26461;45.630;9.418;2023-04-06T01:19:44;9.35;;;6.55;;
40755;SDS011;26461;45.630;9.418;2023-04-06T01:23:02;10.40;;;7.28;;
40755;SDS011;26461;45.630;9.418;2023-04-06T01:26:10;7.30;;;3.47;;
40755;SDS011;26461;45.630;9.418;2023-04-06T01:29:17;14.18;;;6.40;;
40755;SDS011;26461;45.630;9.418;2023-04-06T01:32:23;16.02;;;4.22;;
40755;SDS011;26461;45.630;9.418;2023-04-06T01:35:29;8.00;;;4.03;;
40755;SDS011;26461;45.630;9.418;2023-04-06T01:38:50;5.65;;;2.72;;
40755;SDS011;26461;45.630;9.418;2023-04-06T01:42:08;8.02;;;4.60;;
40755;SDS011;26461;45.630;9.418;2023-04-06T01:45:16;8.73;;;4.18;;
40755;SDS011;26461;45.630;9.418;2023-04-06T01:48:31;9.63;;;3.88;;
40755;SDS011;26461;45.630;9.418;2023-04-06T01:51:53;12.50;;;7.80;;
40755;SDS011;26461;45.630;9.418;2023-04-06T01:55:03;9.73;;;5.63;;
40755;SDS011;26461;45.630;9.418;2023-04-06T01:58:33;12.60;;;2.88;;
40755;SDS011;26461;45.630;9.418;2023-04-06T02:01:39;11.15;;;6.47;;
40755;SDS011;26461;45.630;9.418;2023-04-06T02:04:45;6.53;;;2.83;;
40755;SDS011;26461;45.630;9.418;2023-04-06T02:07:55;10.40;;;4.53;;
40755;SDS011;26461;45.630;9.418;2023-04-06T02:11:12;11.02;;;5.35;;
40755;SDS011;26461;45.630;9.418;2023-04-06T02:14:29;11.40;;;3.15;;
40755;SDS011;26461;45.630;9.418;2023-04-06T02:17:40;9.80;;;3.83;;
40755;SDS011;26461;45.630;9.418;2023-04-06T02:20:51;9.52;;;4.68;;
40755;SDS011;26461;45.630;9.418;2023-04-06T02:24:01;6.80;;;2.15;;
40755;SDS011;26461;45.630;9.418;2023-04-06T02:27:07;4.65;;;2.42;;
40755;SDS011;26461;45.630;9.418;2023-04-06T02:30:17;6.32;;;4.90;;
40755;SDS011;26461;45.630;9.418;2023-04-06T02:33:22;9.27;;;4.93;;
40755;SDS011;26461;45.630;9.418;2023-04-06T02:36:27;11.45;;;3.92;;
40755;SDS011;26461;45.630;9.418;2023-04-06T02:39:32;8.27;;;3.92;;
40755;SDS011;26461;45.630;9.418;2023-04-06T02:42:46;15.68;;;3.90;;
40755;SDS011;26461;45.630;9.418;2023-04-06T02:45:53;15.57;;;7.50;;
40755;SDS011;26461;45.630;9.418;2023-04-06T02:49:00;7.20;;;2.42;;
40755;SDS011;26461;45.630;9.418;2023-04-06T02:52:11;7.40;;;4.03;;
40755;SDS011;26461;45.630;9.418;2023-04-06T02:55:22;5.68;;;2.97;;
40755;SDS011;26461;45.630;9.418;2023-04-06T03:03:03;6.28;;;3.25;;
40755;SDS011;26461;45.630;9.418;2023-04-06T03:06:08;5.95;;;4.20;;
40755;SDS011;26461;45.630;9.418;2023-04-06T03:09:18;6.20;;;2.53;;
40755;SDS011;26461;45.630;9.418;2023-04-06T03:12:29;13.55;;;4.13;;
40755;SDS011;26461;45.630;9.418;2023-04-06T03:15:52;8.05;;;3.38;;
40755;SDS011;26461;45.630;9.418;2023-04-06T03:19:04;5.55;;;2.80;;
40755;SDS011;26461;45.630;9.418;2023-04-06T03:22:14;9.23;;;3.88;;
40755;SDS011;26461;45.630;9.418;2023-04-06T03:25:20;9.88;;;3.55;;
40755;SDS011;26461;45.630;9.418;2023-04-06T03:28:25;6.90;;;4.40;;
40755;SDS011;26461;45.630;9.418;2023-04-06T03:31:36;12.27;;;3.72;;
40755;SDS011;26461;45.630;9.418;2023-04-06T03:34:45;10.60;;;7.50;;
40755;SDS011;26461;45.630;9.418;2023-04-06T03:37:51;10.40;;;4.85;;
40755;SDS011;26461;45.630;9.418;2023-04-06T03:41:02;7.50;;;4.75;;
40755;SDS011;26461;45.630;9.418;2023-04-06T03:44:13;9.93;;;4.25;;
40755;SDS011;26461;45.630;9.418;2023-04-06T03:47:21;10.32;;;3.80;;
40755;SDS011;26461;45.630;9.418;2023-04-06T03:50:36;21.00;;;5.70;;
40755;SDS011;26461;45.630;9.418;2023-04-06T03:53:47;11.70;;;5.85;;
40755;SDS011;26461;45.630;9.418;2023-04-06T03:56:52;6.68;;;3.70;;
40755;SDS011;26461;45.630;9.418;2023-04-06T03:59:58;8.10;;;6.18;;
40755;SDS011;26461;45.630;9.418;2023-04-06T04:03:04;8.00;;;5.05;;
40755;SDS011;26461;45.630;9.418;2023-04-06T04:06:09;12.45;;;4.50;;
40755;SDS011;26461;45.630;9.418;2023-04-06T04:09:19;8.05;;;3.50;;
40755;SDS011;26461;45.630;9.418;2023-04-06T04:12:24;9.32;;;3.50;;
40755;SDS011;26461;45.630;9.418;2023-04-06T04:15:29;6.22;;;3.85;;
40755;SDS011;26461;45.630;9.418;2023-04-06T04:18:34;7.45;;;4.22;;
40755;SDS011;26461;45.630;9.418;2023-04-06T04:21:45;12.52;;;6.93;;
40755;SDS011;26461;45.630;9.418;2023-04-06T04:25:04;10.57;;;5.35;;
40755;SDS011;26461;45.630;9.418;2023-04-06T04:28:14;6.07;;;5.25;;
40755;SDS011;26461;45.630;9.418;2023-04-06T04:31:25;9.77;;;3.53;;
40755;SDS011;26461;45.630;9.418;2023-04-06T04:34:35;21.95;;;8.00;;
40755;SDS011;26461;45.630;9.418;2023-04-06T04:37:43;9.98;;;6.43;;
40755;SDS011;26461;45.630;9.418;2023-04-06T04:40:49;6.45;;;4.90;;
40755;SDS011;26461;45.630;9.418;2023-04-06T04:43:54;13.75;;;8.57;;
40755;SDS011;26461;45.630;9.418;2023-04-06T04:47:02;7.60;;;5.55;;
40755;SDS011;26461;45.630;9.418;2023-04-06T04:50:17;13.30;;;7.40;;
40755;SDS011;26461;45.630;9.418;2023-04-06T04:53:32;10.98;;;7.25;;
40755;SDS011;26461;45.630;9.418;2023-04-06T04:56:53;12.82;;;6.32;;
40755;SDS011;26461;45.630;9.418;2023-04-06T05:00:16;9.90;;;4.93;;
40755;SDS011;26461;45.630;9.418;2023-04-06T05:03:23;19.00;;;6.47;;
40755;SDS011;26461;45.630;9.418;2023-04-06T05:06:42;9.63;;;4.32;;
40755;SDS011;26461;45.630;9.418;2023-04-06T05:09:52;7.43;;;4.70;;
40755;SDS011;26461;45.630;9.418;2023-04-06T05:13:00;6.32;;;4.50;;
40755;SDS011;26461;45.630;9.418;2023-04-06T05:16:05;11.65;;;3.63;;
40755;SDS011;26461;45.630;9.418;2023-04-06T05:19:15;11.07;;;6.47;;
40755;SDS011;26461;45.630;9.418;2023-04-06T05:22:23;13.35;;;6.45;;
40755;SDS011;26461;45.630;9.418;2023-04-06T05:25:38;5.57;;;4.25;;
40755;SDS011;26461;45.630;9.418;2023-04-06T05:28:52;6.38;;;4.47;;
40755;SDS011;26461;45.630;9.418;2023-04-06T05:31:58;8.65;;;4.30;;
40755;SDS011;26461;45.630;9.418;2023-04-06T05:35:09;6.10;;;2.88;;
40755;SDS011;26461;45.630;9.418;2023-04-06T05:38:23;6.50;;;5.57;;
40755;SDS011;26461;45.630;9.418;2023-04-06T05:41:39;14.50;;;4.90;;
40755;SDS011;26461;45.630;9.418;2023-04-06T05:44:47;6.80;;;3.85;;
40755;SDS011;26461;45.630;9.418;2023-04-06T05:47:58;11.23;;;6.20;;
40755;SDS011;26461;45.630;9.418;2023-04-06T05:51:06;10.15;;;4.63;;
40755;SDS011;26461;45.630;9.418;2023-04-06T05:54:25;12.93;;;6.40;;
40755;SDS011;26461;45.630;9.418;2023-04-06T05:57:37;6.88;;;2.90;;
40755;SDS011;26461;45.630;9.418;2023-04-06T06:00:48;9.45;;;3.30;;
40755;SDS011;26461;45.630;9.418;2023-04-06T06:03:57;8.57;;;3.35;;
40755;SDS011;26461;45.630;9.418;2023-04-06T06:07:13;11.02;;;2.85;;
40755;SDS011;26461;45.630;9.418;2023-04-06T06:10:25;6.70;;;3.00;;
40755;SDS011;26461;45.630;9.418;2023-04-06T06:13:30;5.93;;;2.60;;
40755;SDS011;26461;45.630;9.418;2023-04-06T06:16:37;6.95;;;3.13;;
40755;SDS011;26461;45.630;9.418;2023-04-06T06:19:50;8.25;;;3.50;;
40755;SDS011;26461;45.630;9.418;2023-04-06T06:23:01;5.88;;;4.18;;
40755;SDS011;26461;45.630;9.418;2023-04-06T06:26:07;7.60;;;4.15;;
40755;SDS011;26461;45.630;9.418;2023-04-06T06:29:13;6.72;;;4.40;;
40755;SDS011;26461;45.630;9.418;2023-04-06T06:32:20;9.70;;;6.15;;
40755;SDS011;26461;45.630;9.418;2023-04-06T06:35:30;11.05;;;4.00;;
40755;SDS011;26461;45.630;9.418;2023-04-06T06:38:49;13.55;;;5.05;;
40755;SDS011;26461;45.630;9.418;2023-04-06T06:42:07;8.15;;;3.13;;
40755;SDS011;26461;45.630;9.418;2023-04-06T06:45:43;5.10;;;2.97;;
40755;SDS011;26461;45.630;9.418;2023-04-06T06:48:58;4.53;;;2.63;;
40755;SDS011;26461;45.630;9.418;2023-04-06T06:52:14;9.00;;;4.72;;
40755;SDS011;26461;45.630;9.418;2023-04-06T06:55:27;6.65;;;3.83;;
40755;SDS011;26461;45.630;9.418;2023-04-06T06:58:33;5.70;;;4.30;;
40755;SDS011;26461;45.630;9.418;2023-04-06T07:01:42;7.45;;;3.10;;
40755;SDS011;26461;45.630;9.418;2023-04-06T07:04:50;10.38;;;3.90;;
40755;SDS011;26461;45.630;9.418;2023-04-06T07:07:56;8.52;;;2.30;;
40755;SDS011;26461;45.630;9.418;2023-04-06T07:11:07;4.35;;;1.52;;
40755;SDS011;26461;45.630;9.418;2023-04-06T07:14:19;7.63;;;3.75;;
40755;SDS011;26461;45.630;9.418;2023-04-06T07:17:30;4.72;;;2.95;;
40755;SDS011;26461;45.630;9.418;2023-04-06T07:20:44;4.70;;;3.35;;
40755;SDS011;26461;45.630;9.418;2023-04-06T07:23:50;7.93;;;3.10;;
40755;SDS011;26461;45.630;9.418;2023-04-06T07:27:06;6.28;;;2.78;;
40755;SDS011;26461;45.630;9.418;2023-04-06T07:30:22;7.40;;;2.20;;
40755;SDS011;26461;45.630;9.418;2023-04-06T07:33:33;5.65;;;2.10;;
40755;SDS011;26461;45.630;9.418;2023-04-06T07:36:41;6.78;;;2.08;;
40755;SDS011;26461;45.630;9.418;2023-04-06T07:39:53;5.55;;;1.52;;
40755;SDS011;26461;45.630;9.418;2023-04-06T07:42:59;7.65;;;1.25;;
40755;SDS011;26461;45.630;9.418;2023-04-06T07:46:08;6.03;;;2.38;;
40755;SDS011;26461;45.630;9.418;2023-04-06T07:49:20;6.30;;;1.90;;
40755;SDS011;26461;45.630;9.418;2023-04-06T07:52:26;9.63;;;1.85;;
40755;SDS011;26461;45.630;9.418;2023-04-06T07:55:41;6.85;;;1.95;;
40755;SDS011;26461;45.630;9.418;2023-04-06T08:03:35;4.47;;;1.30;;
40755;SDS011;26461;45.630;9.418;2023-04-06T08:06:50;4.97;;;2.05;;
40755;SDS011;26461;45.630;9.418;2023-04-06T08:10:05;5.75;;;1.10;;
40755;SDS011;26461;45.630;9.418;2023-04-06T08:13:13;7.32;;;1.27;;
40755;SDS011;26461;45.630;9.418;2023-04-06T08:16:27;5.40;;;2.22;;
40755;SDS011;26461;45.630;9.418;2023-04-06T08:19:32;7.07;;;2.60;;
40755;SDS011;26461;45.630;9.418;2023-04-06T08:22:44;4.95;;;1.85;;
40755;SDS011;26461;45.630;9.418;2023-04-06T08:25:58;6.72;;;2.47;;
40755;SDS011;26461;45.630;9.418;2023-04-06T08:29:08;3.55;;;1.17;;
40755;SDS011;26461;45.630;9.418;2023-04-06T08:32:14;4.88;;;1.30;;
40755;SDS011;26461;45.630;9.418;2023-04-06T08:35:25;3.28;;;0.98;;
40755;SDS011;26461;45.630;9.418;2023-04-06T08:38:30;6.93;;;2.97;;
40755;SDS011;26461;45.630;9.418;2023-04-06T08:41:36;5.20;;;2.28;;
40755;SDS011;26461;45.630;9.418;2023-04-06T08:44:41;4.22;;;1.60;;
40755;SDS011;26461;45.630;9.418;2023-04-06T08:47:51;3.45;;;0.88;;
40755;SDS011;26461;45.630;9.418;2023-04-06T08:51:06;7.10;;;3.50;;
40755;SDS011;26461;45.630;9.418;2023-04-06T08:54:19;4.90;;;2.22;;
40755;SDS011;26461;45.630;9.418;2023-04-06T08:57:30;7.45;;;1.42;;
40755;SDS011;26461;45.630;9.418;2023-04-06T09:00:37;4.53;;;2.03;;
40755;SDS011;26461;45.630;9.418;2023-04-06T09:03:46;5.25;;;1.30;;
40755;SDS011;26461;45.630;9.418;2023-04-06T09:06:58;8.57;;;1.88;;
40755;SDS011;26461;45.630;9.418;2023-04-06T09:10:09;4.00;;;1.48;;
40755;SDS011;26461;45.630;9.418;2023-04-06T09:13:19;4.82;;;1.88;;
40755;SDS011;26461;45.630;9.418;2023-04-06T09:16:24;8.85;;;3.28;;
40755;SDS011;26461;45.630;9.418;2023-04-06T09:19:30;4.80;;;2.30;;
40755;SDS011;26461;45.630;9.418;2023-04-06T09:22:45;8.50;;;1.70;;
40755;SDS011;26461;45.630;9.418;2023-04-06T09:26:09;4.75;;;3.08;;
40755;SDS011;26461;45.630;9.418;2023-04-06T09:29:25;6.32;;;2.63;;
40755;SDS011;26461;45.630;9.418;2023-04-06T09:36:12;11.23;;;2.53;;
40755;SDS011;26461;45.630;9.418;2023-04-06T09:39:22;7.43;;;2.72;;
40755;SDS011;26461;45.630;9.418;2023-04-06T09:42:30;6.97;;;2.80;;
40755;SDS011;26461;45.630;9.418;2023-04-06T09:45:36;10.10;;;2.72;;
40755;SDS011;26461;45.630;9.418;2023-04-06T09:48:46;5.70;;;2.03;;
40755;SDS011;26461;45.630;9.418;2023-04-06T09:52:01;8.73;;;3.47;;
40755;SDS011;26461;45.630;9.418;2023-04-06T09:55:12;3.97;;;1.38;;
40755;SDS011;26461;45.630;9.418;2023-04-06T09:58:28;9.75;;;2.58;;
40755;SDS011;26461;45.630;9.418;2023-04-06T10:01:40;5.75;;;2.63;;
40755;SDS011;26461;45.630;9.418;2023-04-06T10:08:27;11.65;;;4.30;;
40755;SDS011;26461;45.630;9.418;2023-04-06T10:11:35;4.55;;;1.50;;
40755;SDS011;26461;45.630;9.418;2023-04-06T10:14:41;8.02;;;3.35;;
40755;SDS011;26461;45.630;9.418;2023-04-06T10:17:47;7.50;;;2.88;;
40755;SDS011;26461;45.630;9.418;2023-04-06T10:24:17;12.73;;;4.00;;
40755;SDS011;26461;45.630;9.418;2023-04-06T10:27:28;14.05;;;4.60;;
40755;SDS011;26461;45.630;9.418;2023-04-06T10:30:42;4.90;;;2.15;;
40755;SDS011;26461;45.630;9.418;2023-04-06T10:33:58;14.27;;;4.60;;
40755;SDS011;26461;45.630;9.418;2023-04-06T10:37:11;5.45;;;1.90;;
40755;SDS011;26461;45.630;9.418;2023-04-06T10:40:25;7.90;;;4.43;;
40755;SDS011;26461;45.630;9.418;2023-04-06T10:43:33;7.00;;;3.30;;
40755;SDS011;26461;45.630;9.418;2023-04-06T10:46:53;8.65;;;4.05;;
40755;SDS011;26461;45.630;9.418;2023-04-06T10:50:02;8.25;;;3.45;;
40755;SDS011;26461;45.630;9.418;2023-04-06T10:53:08;9.38;;;4.70;;
40755;SDS011;26461;45.630;9.418;2023-04-06T10:56:20;6.43;;;3.30;;
40755;SDS011;26461;45.630;9.418;2023-04-06T10:59:28;8.38;;;4.85;;
40755;SDS011;26461;45.630;9.418;2023-04-06T11:02:37;8.20;;;3.45;;
40755;SDS011;26461;45.630;9.418;2023-04-06T11:05:46;10.68;;;5.25;;
40755;SDS011;26461;45.630;9.418;2023-04-06T11:08:52;4.60;;;3.25;;
40755;SDS011;26461;45.630;9.418;2023-04-06T11:12:05;6.72;;;4.35;;
40755;SDS011;26461;45.630;9.418;2023-04-06T11:15:11;6.60;;;3.13;;
40755;SDS011;26461;45.630;9.418;2023-04-06T11:18:21;4.07;;;2.58;;
40755;SDS011;26461;45.630;9.418;2023-04-06T11:21:36;17.88;;;5.28;;
40755;SDS011;26461;45.630;9.418;2023-04-06T11:24:53;9.93;;;4.63;;
40755;SDS011;26461;45.630;9.418;2023-04-06T11:28:13;11.48;;;4.90;;
40755;SDS011;26461;45.630;9.418;2023-04-06T11:31:20;5.68;;;3.47;;
40755;SDS011;26461;45.630;9.418;2023-04-06T11:34:39;8.40;;;4.15;;
40755;SDS011;26461;45.630;9.418;2023-04-06T11:37:47;9.60;;;4.35;;
40755;SDS011;26461;45.630;9.418;2023-04-06T11:41:01;13.65;;;5.35;;
40755;SDS011;26461;45.630;9.418;2023-04-06T11:44:07;11.48;;;6.40;;
40755;SDS011;26461;45.630;9.418;2023-04-06T11:47:27;11.70;;;6.65;;
40755;SDS011;26461;45.630;9.418;2023-04-06T11:50:33;14.88;;;5.20;;
40755;SDS011;26461;45.630;9.418;2023-04-06T11:53:44;18.52;;;5.45;;
40755;SDS011;26461;45.630;9.418;2023-04-06T11:56:50;8.77;;;6.32;;
40755;SDS011;26461;45.630;9.418;2023-04-06T12:00:01;11.40;;;5.40;;
40755;SDS011;26461;45.630;9.418;2023-04-06T12:03:09;8.63;;;3.63;;
40755;SDS011;26461;45.630;9.418;2023-04-06T12:06:14;9.43;;;5.03;;
40755;SDS011;26461;45.630;9.418;2023-04-06T12:09:19;16.15;;;8.15;;
40755;SDS011;26461;45.630;9.418;2023-04-06T12:12:25;11.93;;;6.20;;
40755;SDS011;26461;45.630;9.418;2023-04-06T12:15:33;8.80;;;5.50;;
40755;SDS011;26461;45.630;9.418;2023-04-06T12:18:38;11.30;;;6.35;;
40755;SDS011;26461;45.630;9.418;2023-04-06T12:21:47;10.25;;;5.53;;
40755;SDS011;26461;45.630;9.418;2023-04-06T12:24:54;10.00;;;4.85;;
40755;SDS011;26461;45.630;9.418;2023-04-06T12:28:05;10.73;;;4.22;;
40755;SDS011;26461;45.630;9.418;2023-04-06T12:31:15;17.00;;;6.75;;
40755;SDS011;26461;45.630;9.418;2023-04-06T12:34:23;10.05;;;6.57;;
40755;SDS011;26461;45.630;9.418;2023-04-06T12:41:30;8.73;;;5.43;;
40755;SDS011;26461;45.630;9.418;2023-04-06T12:44:35;12.70;;;5.80;;
40755;SDS011;26461;45.630;9.418;2023-04-06T12:47:40;12.80;;;7.78;;
40755;SDS011;26461;45.630;9.418;2023-04-06T12:50:55;9.68;;;5.90;;
40755;SDS011;26461;45.630;9.418;2023-04-06T12:54:06;15.80;;;4.15;;
40755;SDS011;26461;45.630;9.418;2023-04-06T12:57:16;15.63;;;6.10;;
40755;SDS011;26461;45.630;9.418;2023-04-06T13:00:26;11.20;;;6.70;;
40755;SDS011;26461;45.630;9.418;2023-04-06T13:03:37;9.30;;;5.75;;
40755;SDS011;26461;45.630;9.418;2023-04-06T13:06:50;9.65;;;5.45;;
40755;SDS011;26461;45.630;9.418;2023-04-06T13:09:58;7.82;;;5.57;;
40755;SDS011;26461;45.630;9.418;2023-04-06T13:13:04;15.27;;;7.68;;
40755;SDS011;26461;45.630;9.418;2023-04-06T13:16:12;18.13;;;5.97;;
40755;SDS011;26461;45.630;9.418;2023-04-06T13:19:21;10.65;;;5.68;;
40755;SDS011;26461;45.630;9.418;2023-04-06T13:22:30;10.90;;;5.10;;
40755;SDS011;26461;45.630;9.418;2023-04-06T13:26:02;11.50;;;7.55;;
40755;SDS011;26461;45.630;9.418;2023-04-06T13:29:23;12.05;;;5.95;;
40755;SDS011;26461;45.630;9.418;2023-04-06T13:32:42;15.00;;;4.85;;
40755;SDS011;26461;45.630;9.418;2023-04-06T13:35:54;18.08;;;6.32;;
40755;SDS011;26461;45.630;9.418;2023-04-06T13:39:05;12.43;;;8.30;;
40755;SDS011;26461;45.630;9.418;2023-04-06T13:42:16;11.80;;;6.78;;
40755;SDS011;26461;45.630;9.418;2023-04-06T13:45:26;11.70;;;7.38;;
40755;SDS011;26461;45.630;9.418;2023-04-06T13:48:43;19.45;;;6.57;;
40755;SDS011;26461;45.630;9.418;2023-04-06T13:51:48;15.23;;;6.70;;
40755;SDS011;26461;45.630;9.418;2023-04-06T13:54:53;17.17;;;8.00;;
40755;SDS011;26461;45.630;9.418;2023-04-06T13:58:04;11.23;;;6.45;;
40755;SDS011;26461;45.630;9.418;2023-04-06T14:01:22;9.77;;;5.68;;
40755;SDS011;26461;45.630;9.418;2023-04-06T14:04:37;8.07;;;5.57;;
40755;SDS011;26461;45.630;9.418;2023-04-06T14:07:49;13.93;;;9.23;;
40755;SDS011;26461;45.630;9.418;2023-04-06T14:11:02;11.13;;;5.32;;
40755;SDS011;26461;45.630;9.418;2023-04-06T14:14:27;10.95;;;6.45;;
40755;SDS011;26461;45.630;9.418;2023-04-06T14:17:41;10.50;;;6.53;;
40755;SDS011;26461;45.630;9.418;2023-04-06T14:21:03;16.80;;;6.72;;
40755;SDS011;26461;45.630;9.418;2023-04-06T14:24:18;21.90;;;9.23;;
40755;SDS011;26461;45.630;9.418;2023-04-06T14:27:32;16.38;;;7.25;;
40755;SDS011;26461;45.630;9.418;2023-04-06T14:30:40;12.23;;;6.68;;
40755;SDS011;26461;45.630;9.418;2023-04-06T14:33:45;16.52;;;10.13;;
40755;SDS011;26461;45.630;9.418;2023-04-06T14:36:59;16.70;;;8.57;;
40755;SDS011;26461;45.630;9.418;2023-04-06T14:40:04;17.08;;;7.45;;
40755;SDS011;26461;45.630;9.418;2023-04-06T14:43:14;17.70;;;6.97;;
40755;SDS011;26461;45.630;9.418;2023-04-06T14:46:21;13.35;;;6.07;;
40755;SDS011;26461;45.630;9.418;2023-04-06T14:49:27;12.73;;;7.13;;
40755;SDS011;26461;45.630;9.418;2023-04-06T14:52:33;21.83;;;7.68;;
40755;SDS011;26461;45.630;9.418;2023-04-06T14:55:39;12.32;;;8.05;;
40755;SDS011;26461;45.630;9.418;2023-04-06T14:58:50;8.57;;;6.30;;
40755;SDS011;26461;45.630;9.418;2023-04-06T15:01:56;16.65;;;7.30;;
40755;SDS011;26461;45.630;9.418;2023-04-06T15:05:04;17.02;;;8.95;;
40755;SDS011;26461;45.630;9.418;2023-04-06T15:08:14;12.80;;;6.97;;
40755;SDS011;26461;45.630;9.418;2023-04-06T15:11:28;10.80;;;7.72;;
40755;SDS011;26461;45.630;9.418;2023-04-06T15:14:40;13.88;;;7.30;;
40755;SDS011;26461;45.630;9.418;2023-04-06T15:17:53;23.52;;;9.27;;
40755;SDS011;26461;45.630;9.418;2023-04-06T15:21:07;16.20;;;8.20;;
40755;SDS011;26461;45.630;9.418;2023-04-06T15:24:20;11.18;;;6.45;;
40755;SDS011;26461;45.630;9.418;2023-04-06T15:27:26;9.82;;;6.03;;
40755;SDS011;26461;45.630;9.418;2023-04-06T15:30:32;12.00;;;6.90;;
40755;SDS011;26461;45.630;9.418;2023-04-06T15:33:37;17.77;;;9.95;;
40755;SDS011;26461;45.630;9.418;2023-04-06T15:36:42;9.15;;;5.00;;
40755;SDS011;26461;45.630;9.418;2023-04-06T15:39:50;13.15;;;6.50;;
40755;SDS011;26461;45.630;9.418;2023-04-06T15:43:04;8.18;;;6.72;;
40755;SDS011;26461;45.630;9.418;2023-04-06T15:46:09;7.38;;;3.60;;
40755;SDS011;26461;45.630;9.418;2023-04-06T15:49:15;9.10;;;4.88;;
40755;SDS011;26461;45.630;9.418;2023-04-06T15:52:21;13.65;;;5.45;;
40755;SDS011;26461;45.630;9.418;2023-04-06T15:55:28;17.90;;;6.18;;
40755;SDS011;26461;45.630;9.418;2023-04-06T15:58:36;8.40;;;4.93;;
40755;SDS011;26461;45.630;9.418;2023-04-06T16:01:47;9.23;;;5.28;;
40755;SDS011;26461;45.630;9.418;2023-04-06T16:05:00;15.52;;;6.18;;
40755;SDS011;26461;45.630;9.418;2023-04-06T16:08:12;11.70;;;5.72;;
40755;SDS011;26461;45.630;9.418;2023-04-06T16:11:28;8.23;;;2.97;;
40755;SDS011;26461;45.630;9.418;2023-04-06T16:14:38;11.15;;;6.25;;
40755;SDS011;26461;45.630;9.418;2023-04-06T16:17:53;12.68;;;5.53;;
40755;SDS011;26461;45.630;9.418;2023-04-06T16:20:59;9.52;;;4.00;;
40755;SDS011;26461;45.630;9.418;2023-04-06T16:24:04;7.28;;;3.83;;
40755;SDS011;26461;45.630;9.418;2023-04-06T16:27:18;11.68;;;5.07;;
40755;SDS011;26461;45.630;9.418;2023-04-06T16:30:28;17.05;;;6.95;;
40755;SDS011;26461;45.630;9.418;2023-04-06T16:33:36;8.57;;;4.00;;
40755;SDS011;26461;45.630;9.418;2023-04-06T16:36:48;12.25;;;4.05;;
40755;SDS011;26461;45.630;9.418;2023-04-06T16:39:53;8.32;;;6.07;;
40755;SDS011;26461;45.630;9.418;2023-04-06T16:43:09;10.23;;;4.00;;
40755;SDS011;26461;45.630;9.418;2023-04-06T16:46:19;10.90;;;3.80;;
40755;SDS011;26461;45.630;9.418;2023-04-06T16:49:24;5.90;;;4.05;;
40755;SDS011;26461;45.630;9.418;2023-04-06T16:52:35;8.75;;;3.38;;
40755;SDS011;26461;45.630;9.418;2023-04-06T16:55:45;10.95;;;2.90;;
40755;SDS011;26461;45.630;9.418;2023-04-06T16:58:55;12.43;;;7.05;;
40755;SDS011;26461;45.630;9.418;2023-04-06T17:02:01;8.30;;;3.95;;
40755;SDS011;26461;45.630;9.418;2023-04-06T17:05:06;10.18;;;4.47;;
40755;SDS011;26461;45.630;9.418;2023-04-06T17:08:19;8.55;;;3.92;;
40755;SDS011;26461;45.630;9.418;2023-04-06T17:11:24;7.07;;;2.83;;
40755;SDS011;26461;45.630;9.418;2023-04-06T17:14:35;6.28;;;3.97;;
40755;SDS011;26461;45.630;9.418;2023-04-06T17:17:40;12.35;;;4.00;;
40755;SDS011;26461;45.630;9.418;2023-04-06T17:20:47;13.23;;;7.15;;
40755;SDS011;26461;45.630;9.418;2023-04-06T17:23:58;8.43;;;4.53;;
40755;SDS011;26461;45.630;9.418;2023-04-06T17:27:03;14.10;;;5.32;;
40755;SDS011;26461;45.630;9.418;2023-04-06T17:30:08;10.30;;;5.47;;
40755;SDS011;26461;45.630;9.418;2023-04-06T17:33:15;12.35;;;5.82;;
40755;SDS011;26461;45.630;9.418;2023-04-06T17:36:27;7.57;;;4.47;;
40755;SDS011;26461;45.630;9.418;2023-04-06T17:39:32;10.05;;;5.70;;
40755;SDS011;26461;45.630;9.418;2023-04-06T17:42:38;13.05;;;7.10;;
40755;SDS011;26461;45.630;9.418;2023-04-06T17:45:47;11.93;;;4.55;;
40755;SDS011;26461;45.630;9.418;2023-04-06T17:48:56;20.73;;;8.55;;
40755;SDS011;26461;45.630;9.418;2023-04-06T17:52:02;14.35;;;7.88;;
40755;SDS011;26461;45.630;9.418;2023-04-06T17:55:07;15.02;;;6.95;;
40755;SDS011;26461;45.630;9.418;2023-04-06T17:58:12;8.10;;;6.10;;
40755;SDS011;26461;45.630;9.418;2023-04-06T18:01:17;13.18;;;8.00;;
40755;SDS011;26461;45.630;9.418;2023-04-06T18:04:25;12.70;;;7.57;;
40755;SDS011;26461;45.630;9.418;2023-04-06T18:07:35;11.40;;;8.48;;
40755;SDS011;26461;45.630;9.418;2023-04-06T18:10:40;18.85;;;7.95;;
40755;SDS011;26461;45.630;9.418;2023-04-06T18:13:49;13.93;;;7.60;;
40755;SDS011;26461;45.630;9.418;2023-04-06T18:17:02;9.27;;;5.88;;
40755;SDS011;26461;45.630;9.418;2023-04-06T18:20:12;12.25;;;7.97;;
40755;SDS011;26461;45.630;9.418;2023-04-06T18:23:17;14.68;;;9.13;;
40755;SDS011;26461;45.630;9.418;2023-04-06T18:26:22;14.77;;;8.82;;
40755;SDS011;26461;45.630;9.418;2023-04-06T18:29:29;19.55;;;6.60;;
40755;SDS011;26461;45.630;9.418;2023-04-06T18:32:39;17.88;;;8.60;;
40755;SDS011;26461;45.630;9.418;2023-04-06T18:35:49;15.52;;;9.98;;
40755;SDS011;26461;45.630;9.418;2023-04-06T18:38:59;17.00;;;9.30;;
40755;SDS011;26461;45.630;9.418;2023-04-06T18:42:10;14.35;;;9.02;;
40755;SDS011;26461;45.630;9.418;2023-04-06T18:45:22;10.45;;;6.93;;
40755;SDS011;26461;45.630;9.418;2023-04-06T18:48:29;30.83;;;10.57;;
40755;SDS011;26461;45.630;9.418;2023-04-06T18:51:35;25.15;;;9.30;;
40755;SDS011;26461;45.630;9.418;2023-04-06T18:54:45;17.23;;;8.93;;
40755;SDS011;26461;45.630;9.418;2023-04-06T18:57:52;14.75;;;8.30;;
40755;SDS011;26461;45.630;9.418;2023-04-06T19:01:05;15.43;;;9.40;;
40755;SDS011;26461;45.630;9.418;2023-04-06T19:04:16;25.73;;;11.20;;
40755;SDS011;26461;45.630;9.418;2023-04-06T19:07:21;17.48;;;8.95;;
40755;SDS011;26461;45.630;9.418;2023-04-06T19:10:27;12.48;;;10.23;;
40755;SDS011;26461;45.630;9.418;2023-04-06T19:13:42;10.05;;;9.32;;
40755;SDS011;26461;45.630;9.418;2023-04-06T19:16:53;18.75;;;7.97;;
40755;SDS011;26461;45.630;9.418;2023-04-06T19:20:09;22.60;;;10.30;;